createdAt,value
2022-12-16T00:01:34.724Z,100295.13
2022-12-16T00:04:06.164Z,100326.78
2022-12-16T00:06:37.520Z,100315.41
2022-12-16T00:09:09.253Z,100336.53
2022-12-16T00:11:40.622Z,100347.91
2022-12-16T00:14:11.993Z,100340.03
2022-12-16T00:16:43.395Z,100351.34
2022-12-16T00:19:15.036Z,100347.00
2022-12-16T00:21:46.351Z,100352.19
2022-12-16T00:24:17.698Z,100315.28
2022-12-16T00:26:49.062Z,100346.16
2022-12-16T00:29:20.559Z,100353.09
2022-12-16T00:31:52.271Z,100359.16
2022-12-16T00:34:24.027Z,100354.78
2022-12-16T00:36:55.402Z,100361.75
2022-12-16T00:39:26.723Z,100357.44
2022-12-16T00:41:58.097Z,100347.59
2022-12-16T00:44:29.462Z,100349.41
2022-12-16T00:47:00.858Z,100360.84
2022-12-16T00:49:32.204Z,100359.13
2022-12-16T00:52:03.720Z,100360.84
2022-12-16T00:54:38.348Z,100354.63
2022-12-16T00:57:10.054Z,100327.25
2022-12-16T00:59:41.404Z,100354.47
2022-12-16T01:02:12.837Z,100359.00
2022-12-16T01:04:44.511Z,100358.88
2022-12-16T01:07:16.016Z,100366.84
2022-12-16T01:09:47.379Z,100373.78
2022-12-16T01:12:18.729Z,100361.50
2022-12-16T01:14:50.160Z,100359.44
2022-12-16T01:17:21.688Z,100355.88
2022-12-16T01:19:56.395Z,100372.47
2022-12-16T01:22:31.125Z,100373.31
2022-12-16T01:25:03.694Z,100376.78
2022-12-16T01:27:35.145Z,100389.78
2022-12-16T01:30:09.033Z,100355.53
2022-12-16T01:32:40.396Z,100392.50
2022-12-16T01:35:43.913Z,100390.66
2022-12-16T01:38:04.607Z,100406.44
2022-12-16T01:40:35.990Z,100399.41
2022-12-16T01:43:14.124Z,100399.31
2022-12-16T01:45:45.716Z,100403.56
2022-12-16T01:48:38.905Z,100420.97
2022-12-16T01:51:32.373Z,100420.97
2022-12-16T01:54:14.904Z,100404.28
2022-12-16T01:56:54.306Z,100397.13
2022-12-16T01:59:29.724Z,100400.59
2022-12-16T02:02:02.793Z,100410.28
2022-12-16T02:04:34.269Z,100418.19
2022-12-16T02:07:05.521Z,100426.91
2022-12-16T02:09:36.806Z,100426.16
2022-12-16T02:12:40.656Z,100417.47
2022-12-16T02:19:57.891Z,100425.25
2022-12-16T02:22:44.851Z,100423.53
2022-12-16T02:25:26.084Z,100424.41
2022-12-16T02:28:26.814Z,100420.88
2022-12-16T02:31:09.585Z,100404.31
2022-12-16T02:33:52.119Z,100412.06
2022-12-16T02:36:40.981Z,100426.16
2022-12-16T02:40:00.378Z,100399.66
2022-12-16T02:42:37.629Z,100413.72
2022-12-16T02:45:20.120Z,100428.63
2022-12-16T02:47:51.562Z,100426.91
2022-12-16T02:50:28.024Z,100395.22
2022-12-16T02:53:01.280Z,100432.13
2022-12-16T02:55:44.969Z,100429.47
2022-12-16T02:58:22.916Z,100425.06
2022-12-16T03:01:18.202Z,100436.44
2022-12-16T03:03:52.252Z,100433.84
2022-12-16T03:06:27.375Z,100437.31
2022-12-16T03:09:03.497Z,100425.16
2022-12-16T03:11:36.585Z,100424.22
2022-12-16T03:14:11.445Z,100421.47
2022-12-16T03:16:45.140Z,100416.28
2022-12-16T03:19:16.605Z,100408.28
2022-12-16T03:21:54.729Z,100426.97
2022-12-16T03:24:26.214Z,100431.31
2022-12-16T03:27:13.899Z,100419.97
2022-12-16T03:29:58.875Z,100435.91
2022-12-16T03:32:41.848Z,100421.03
2022-12-16T03:35:16.263Z,100438.56
2022-12-16T03:37:51.790Z,100436.84
2022-12-16T03:40:25.369Z,100411.44
2022-12-16T03:42:57.359Z,100437.81
2022-12-16T03:45:35.676Z,100446.47
2022-12-16T03:48:10.069Z,100436.91
2022-12-16T03:50:41.494Z,100454.31
2022-12-16T03:53:12.824Z,100447.44
2022-12-16T03:55:44.344Z,100442.94
2022-12-16T03:58:15.648Z,100449.31
2022-12-16T04:00:47.153Z,100456.31
2022-12-16T04:03:18.498Z,100443.97
2022-12-16T04:05:49.908Z,100458.97
2022-12-16T04:08:21.177Z,100432.63
2022-12-16T04:11:12.358Z,100455.44
2022-12-16T04:14:02.212Z,100441.25
2022-12-16T04:16:51.968Z,100428.84
2022-12-16T04:19:47.109Z,100439.13
2022-12-16T04:22:44.895Z,100430.66
2022-12-16T04:25:26.247Z,100451.09
2022-12-16T04:27:58.638Z,100438.44
2022-12-16T04:30:34.727Z,100438.81
2022-12-16T04:33:28.446Z,100458.53
2022-12-16T04:36:19.171Z,100436.06
2022-12-16T04:39:09.468Z,100450.44
2022-12-16T04:41:59.569Z,100463.22
2022-12-16T04:44:49.641Z,100476.84
2022-12-16T04:47:39.511Z,100459.81
2022-12-16T04:50:29.794Z,100456.63
2022-12-16T04:53:19.679Z,100475.53
2022-12-16T04:56:09.305Z,100486.69
2022-12-16T04:58:58.921Z,100480.06
2022-12-16T05:01:48.930Z,100483.16
2022-12-16T05:04:38.703Z,100481.91
2022-12-16T05:07:32.001Z,100503.56
2022-12-16T05:10:26.108Z,100492.53
2022-12-16T05:13:16.005Z,100506.31
2022-12-16T05:16:06.275Z,100499.84
2022-12-16T05:18:56.414Z,100517.28
2022-12-16T05:21:46.374Z,100518.75
2022-12-16T05:24:36.463Z,100521.97
2022-12-16T05:27:26.627Z,100506.56
2022-12-16T05:30:16.460Z,100522.09
2022-12-16T05:33:09.136Z,100520.97
2022-12-16T05:35:58.873Z,100527.63
2022-12-16T05:38:48.831Z,100532.38
2022-12-16T05:41:38.957Z,100534.72
2022-12-16T05:44:28.950Z,100526.38
2022-12-16T05:47:18.933Z,100541.78
2022-12-16T05:50:09.168Z,100542.38
2022-12-16T05:52:59.091Z,100534.84
2022-12-16T05:55:49.185Z,100545.06
2022-12-16T05:58:39.177Z,100552.91
2022-12-16T06:01:29.184Z,100529.16
2022-12-16T06:04:19.675Z,100556.94
2022-12-16T06:07:09.787Z,100545.44
2022-12-16T06:09:59.494Z,100558.28
2022-12-16T06:12:49.440Z,100582.59
2022-12-16T06:15:39.787Z,100557.81
2022-12-16T06:18:29.901Z,100578.69
2022-12-16T06:21:19.693Z,100570.75
2022-12-16T06:24:09.445Z,100554.28
2022-12-16T06:26:59.194Z,100571.56
2022-12-16T06:29:49.365Z,100560.34
2022-12-16T06:32:39.472Z,100578.63
2022-12-16T06:35:29.634Z,100581.16
2022-12-16T06:38:19.368Z,100588.28
2022-12-16T06:41:09.301Z,100612.38
2022-12-16T06:43:59.075Z,100609.56
2022-12-16T06:46:49.061Z,100577.28
2022-12-16T06:49:39.033Z,100620.31
2022-12-16T06:52:29.018Z,100597.88
2022-12-16T06:55:18.921Z,100586.38
2022-12-16T06:58:15.593Z,100632.69
2022-12-16T07:01:05.894Z,100621.47
2022-12-16T07:03:55.602Z,100605.25
2022-12-16T07:06:45.593Z,100627.44
2022-12-16T07:09:35.731Z,100638.00
2022-12-16T07:12:25.725Z,100643.19
2022-12-16T07:15:15.592Z,100649.31
2022-12-16T07:18:05.310Z,100655.59
2022-12-16T07:20:55.124Z,100669.75
2022-12-16T07:23:45.224Z,100643.50
2022-12-16T07:26:35.309Z,100684.28
2022-12-16T07:29:25.335Z,100686.25
2022-12-16T07:32:15.132Z,100686.25
2022-12-16T07:35:04.909Z,100671.81
2022-12-16T07:37:57.351Z,100694.84
2022-12-16T07:40:51.923Z,100686.78
2022-12-16T07:43:41.864Z,100688.50
2022-12-16T07:46:31.750Z,100695.72
2022-12-16T07:49:21.533Z,100716.53
2022-12-16T07:52:11.396Z,100717.28
2022-12-16T07:55:01.200Z,100703.72
2022-12-16T07:57:51.211Z,100716.84
2022-12-16T08:00:41.208Z,100728.28
2022-12-16T08:03:31.750Z,100726.75
2022-12-16T08:06:22.125Z,100729.41
2022-12-16T08:09:11.950Z,100699.13
2022-12-16T08:12:01.773Z,100736.25
2022-12-16T08:14:51.584Z,100748.44
2022-12-16T08:17:42.703Z,100720.09
2022-12-16T08:20:32.786Z,100736.03
2022-12-16T08:23:22.812Z,100754.72
2022-12-16T08:26:12.643Z,100760.63
2022-12-16T08:29:34.735Z,100780.66
2022-12-16T08:32:12.414Z,100762.56
2022-12-16T08:35:02.193Z,100773.56
2022-12-16T08:37:52.161Z,100792.84
2022-12-16T08:40:42.449Z,100799.16
2022-12-16T08:43:33.494Z,100806.41
2022-12-16T08:46:23.680Z,100810.97
2022-12-16T08:49:13.316Z,100812.78
2022-12-16T08:52:03.033Z,100810.25
2022-12-16T08:54:52.857Z,100825.94
2022-12-16T08:57:43.173Z,100824.16
2022-12-16T09:00:33.733Z,100816.13
2022-12-16T09:03:23.885Z,100808.44
2022-12-16T09:06:18.296Z,100820.50
2022-12-16T09:09:08.272Z,100831.25
2022-12-16T09:11:58.606Z,100805.13
2022-12-16T09:14:48.609Z,100836.53
2022-12-16T09:17:38.706Z,100829.19
2022-12-16T09:20:29.163Z,100824.22
2022-12-16T09:23:22.964Z,100834.47
2022-12-16T09:26:12.836Z,100833.81
2022-12-16T09:29:02.957Z,100847.25
2022-12-16T09:31:52.736Z,100848.97
2022-12-16T09:34:42.878Z,100858.03
2022-12-16T09:37:33.007Z,100856.31
2022-12-16T09:40:24.031Z,100853.94
2022-12-16T09:43:56.309Z,100860.41
2022-12-16T09:47:24.506Z,100863.94
2022-12-16T09:50:14.724Z,100865.66
2022-12-16T09:53:15.719Z,100864.13
2022-12-16T09:56:06.342Z,100864.13
2022-12-16T09:59:02.199Z,100850.00
2022-12-16T10:01:56.259Z,100867.69
2022-12-16T10:04:46.988Z,100877.53
2022-12-16T10:07:40.317Z,100872.13
2022-12-16T10:10:41.163Z,100868.03
2022-12-16T10:14:01.344Z,100876.28
2022-12-16T10:17:40.764Z,100881.81
2022-12-16T10:20:49.822Z,100883.78
2022-12-16T10:23:44.335Z,100895.88
2022-12-16T10:27:12.549Z,100885.34
2022-12-16T10:30:04.869Z,100888.94
2022-12-16T10:33:08.061Z,100886.59
2022-12-16T10:36:07.885Z,100887.63
2022-12-16T10:39:07.766Z,100874.41
2022-12-16T10:42:03.699Z,100877.22
2022-12-16T10:44:56.191Z,100897.41
2022-12-16T10:47:46.249Z,100893.25
2022-12-16T10:50:36.312Z,100867.00
2022-12-16T10:53:35.946Z,100900.63
2022-12-16T10:56:32.540Z,100898.91
2022-12-16T10:59:24.611Z,100894.69
2022-12-16T11:02:22.236Z,100894.97
2022-12-16T11:05:12.540Z,100893.41
2022-12-16T11:08:02.377Z,100885.75
2022-12-16T11:10:56.387Z,100885.84
2022-12-16T11:13:50.713Z,100887.59
2022-12-16T11:16:44.697Z,100886.72
2022-12-16T11:19:38.777Z,100885.03
2022-12-16T11:22:37.878Z,100893.97
2022-12-16T11:25:34.592Z,100873.84
2022-12-16T11:28:35.724Z,100886.41
2022-12-16T11:31:49.674Z,100900.53
2022-12-16T11:34:39.792Z,100898.91
2022-12-16T11:37:29.809Z,100905.00
2022-12-16T11:40:21.127Z,100897.88
2022-12-16T11:43:16.789Z,100883.94
2022-12-16T11:46:10.154Z,100905.38
2022-12-16T11:49:07.982Z,100908.25
2022-12-16T11:52:21.153Z,100897.03
2022-12-16T11:55:55.544Z,100896.16
2022-12-16T11:58:55.250Z,100908.53
2022-12-16T12:02:07.276Z,100900.91
2022-12-16T12:04:58.892Z,100901.19
2022-12-16T12:08:10.738Z,100909.25
2022-12-16T12:11:29.384Z,100905.81
2022-12-16T12:14:51.602Z,100910.25
2022-12-16T12:18:06.646Z,100914.63
2022-12-16T12:21:05.557Z,100898.56
2022-12-16T12:24:23.124Z,100912.69
2022-12-16T12:27:51.924Z,100917.88
2022-12-16T12:31:02.848Z,100916.13
2022-12-16T12:34:17.680Z,100917.72
2022-12-16T12:37:16.141Z,100927.28
2022-12-16T12:40:15.952Z,100930.75
2022-12-16T12:43:11.882Z,100929.25
2022-12-16T12:46:21.367Z,100935.63
2022-12-16T12:49:40.818Z,100914.66
2022-12-16T12:52:43.567Z,100933.41
2022-12-16T12:55:47.179Z,100941.28
2022-12-16T12:58:37.789Z,100928.81
2022-12-16T13:01:29.254Z,100952.69
2022-12-16T13:04:24.844Z,100942.97
2022-12-16T13:07:17.677Z,100941.84
2022-12-16T13:10:32.714Z,100960.75
2022-12-16T13:13:42.948Z,100955.41
2022-12-16T13:17:14.304Z,100956.16
2022-12-16T13:20:12.483Z,100960.44
2022-12-16T13:23:04.587Z,100956.00
2022-12-16T13:26:10.628Z,100963.59
2022-12-16T13:29:01.480Z,100958.47
2022-12-16T13:31:51.611Z,100963.00
2022-12-16T13:34:46.966Z,100951.34
2022-12-16T13:37:42.900Z,100954.91
2022-12-16T13:40:41.029Z,100974.25
2022-12-16T13:44:05.357Z,100974.16
2022-12-16T13:47:11.036Z,100966.06
2022-12-16T13:50:04.993Z,100982.97
2022-12-16T13:53:13.924Z,100979.63
2022-12-16T13:56:14.758Z,100982.31
2022-12-16T13:59:11.413Z,100960.19
2022-12-16T14:02:16.729Z,100996.22
2022-12-16T14:05:11.586Z,100987.44
2022-12-16T14:08:02.554Z,100977.72
2022-12-16T14:10:57.687Z,100995.28
2022-12-16T14:14:14.229Z,101006.41
2022-12-16T14:17:10.208Z,101008.78
2022-12-16T14:20:20.723Z,101018.13
2022-12-16T14:23:58.859Z,101026.63
2022-12-16T14:26:49.257Z,101033.25
2022-12-16T14:29:43.392Z,101009.81
2022-12-16T14:32:46.877Z,101037.63
2022-12-16T14:35:41.516Z,101055.41
2022-12-16T14:38:49.074Z,101049.78
2022-12-16T14:41:43.671Z,101049.53
2022-12-16T14:44:39.925Z,101052.78
2022-12-16T14:47:36.152Z,101058.72
2022-12-16T14:50:38.435Z,101053.31
2022-12-16T14:53:49.434Z,101048.78
2022-12-16T14:56:41.588Z,101035.16
2022-12-16T14:59:36.747Z,101059.53
2022-12-16T15:02:39.348Z,101057.75
2022-12-16T15:05:30.119Z,101062.75
2022-12-16T15:08:19.873Z,101067.72
2022-12-16T15:11:10.917Z,101070.94
2022-12-16T15:14:03.892Z,101054.53
2022-12-16T15:16:55.602Z,101079.53
2022-12-16T15:20:01.549Z,101084.28
2022-12-16T15:22:53.747Z,101072.13
2022-12-16T15:25:45.305Z,101073.59
2022-12-16T15:28:54.896Z,101048.28
2022-12-16T15:32:03.480Z,101098.41
2022-12-16T15:35:08.073Z,101057.16
2022-12-16T15:38:04.332Z,101111.25
2022-12-16T15:40:59.349Z,101091.75
2022-12-16T15:43:57.308Z,101108.84
2022-12-16T15:46:48.820Z,101120.25
2022-12-16T15:49:50.353Z,101133.44
2022-12-16T15:53:00.361Z,101135.16
2022-12-16T15:55:59.505Z,101119.19
2022-12-16T15:58:54.892Z,101117.66
2022-12-16T16:01:46.632Z,101146.03
2022-12-16T16:04:42.043Z,101128.38
2022-12-16T16:07:40.933Z,101130.91
2022-12-16T16:10:35.583Z,101153.72
2022-12-16T16:13:25.592Z,101146.75
2022-12-16T16:16:15.885Z,101139.91
2022-12-16T16:19:05.653Z,101148.66
2022-12-16T16:21:55.407Z,101152.97
2022-12-16T16:24:45.503Z,101151.13
2022-12-16T16:27:37.219Z,101137.50
2022-12-16T16:30:28.835Z,101150.94
2022-12-16T16:33:18.735Z,101162.34
2022-12-16T16:36:08.700Z,101168.56
2022-12-16T16:38:58.396Z,101161.28
2022-12-16T16:41:48.537Z,101163.28
2022-12-16T16:44:38.628Z,101134.03
2022-12-16T16:47:35.169Z,101165.72
2022-12-16T16:50:25.675Z,101161.22
2022-12-16T16:53:15.822Z,101182.38
2022-12-16T16:56:05.635Z,101186.78
2022-12-16T16:58:55.460Z,101190.34
2022-12-16T17:01:45.539Z,101177.41
2022-12-16T17:04:35.590Z,101150.63
2022-12-16T17:07:25.509Z,101168.59
2022-12-16T17:10:15.162Z,101193.31
2022-12-16T17:13:05.042Z,101194.25
2022-12-16T17:15:56.179Z,101187.09
2022-12-16T17:18:51.962Z,101214.50
2022-12-16T17:21:41.976Z,101218.03
2022-12-16T17:24:32.003Z,101222.41
2022-12-16T17:27:36.748Z,101218.28
2022-12-16T17:30:35.422Z,101214.72
2022-12-16T17:33:25.523Z,101220.94
2022-12-16T17:36:15.393Z,101199.59
2022-12-16T17:39:05.191Z,101232.50
2022-12-16T17:41:54.932Z,101234.31
2022-12-16T17:44:46.044Z,101230.91
2022-12-16T17:47:36.093Z,101233.56
2022-12-16T17:50:26.613Z,101215.81
2022-12-16T17:53:17.413Z,101209.66
2022-12-16T17:56:07.264Z,101238.69
2022-12-16T17:58:58.072Z,101245.09
2022-12-16T18:01:48.056Z,101250.44
2022-12-16T18:04:38.016Z,101225.69
2022-12-16T18:07:28.002Z,101239.91
2022-12-16T18:10:17.969Z,101256.50
2022-12-16T18:13:08.241Z,101258.16
2022-12-16T18:16:17.886Z,101248.97
2022-12-16T18:19:09.075Z,101265.84
2022-12-16T18:21:58.978Z,101271.00
2022-12-16T18:24:48.929Z,101266.50
2022-12-16T18:27:39.012Z,101272.78
2022-12-16T18:30:30.146Z,101251.53
2022-12-16T18:33:20.408Z,101274.59
2022-12-16T18:36:10.251Z,101270.09
2022-12-16T18:38:59.944Z,101273.91
2022-12-16T18:41:49.967Z,101280.00
2022-12-16T18:44:40.090Z,101287.94
2022-12-16T18:47:30.669Z,101285.31
2022-12-16T18:50:27.817Z,101282.78
2022-12-16T18:53:19.201Z,101288.00
2022-12-16T18:56:24.421Z,101281.00
2022-12-16T18:59:14.166Z,101280.06
2022-12-16T19:02:04.218Z,101291.53
2022-12-16T19:04:54.415Z,101288.00
2022-12-16T19:07:44.559Z,101295.91
2022-12-16T19:10:34.637Z,101296.75
2022-12-16T19:13:24.584Z,101305.38
2022-12-16T19:16:15.974Z,101308.03
2022-12-16T19:19:05.827Z,101303.72
2022-12-16T19:21:56.562Z,101310.72
2022-12-16T19:24:46.769Z,101317.69
2022-12-16T19:27:36.847Z,101302.72
2022-12-16T19:30:28.045Z,101310.78
2022-12-16T19:33:17.898Z,101321.25
2022-12-16T19:36:07.761Z,101319.59
2022-12-16T19:38:57.496Z,101301.81
2022-12-16T19:41:47.532Z,101321.25
2022-12-16T19:44:37.474Z,101314.13
2022-12-16T19:47:27.570Z,101304.38
2022-12-16T19:50:17.689Z,101331.66
2022-12-16T19:53:07.734Z,101328.16
2022-12-16T19:55:57.816Z,101324.50
2022-12-16T19:58:47.861Z,101334.25
2022-12-16T20:01:37.951Z,101335.22
2022-12-16T20:04:28.308Z,101332.53
2022-12-16T20:07:23.048Z,101335.16
2022-12-16T20:10:13.450Z,101342.97
2022-12-16T20:13:03.321Z,101343.84
2022-12-16T20:15:53.156Z,101335.66
2022-12-16T20:18:46.331Z,101335.59
2022-12-16T20:21:36.250Z,101334.72
2022-12-16T20:24:26.387Z,101355.91
2022-12-16T20:27:16.441Z,101369.75
2022-12-16T20:30:06.365Z,101367.09
2022-12-16T20:32:56.301Z,101370.44
2022-12-16T20:35:46.133Z,101370.38
2022-12-16T20:38:36.255Z,101372.22
2022-12-16T20:41:26.237Z,101371.97
2022-12-16T20:44:15.915Z,101365.81
2022-12-16T20:47:05.641Z,101377.31
2022-12-16T20:49:55.368Z,101378.00
2022-12-16T20:52:45.931Z,101359.22
2022-12-16T20:55:36.024Z,101389.22
2022-12-16T20:58:26.122Z,101384.72
2022-12-16T21:01:15.889Z,101395.19
2022-12-16T21:04:05.739Z,101393.22
2022-12-16T21:06:56.186Z,101369.47
2022-12-16T21:09:45.981Z,101233.31
2022-12-16T21:12:35.887Z,101373.41
2022-12-16T21:15:26.404Z,101391.06
2022-12-16T21:18:19.814Z,101394.59
2022-12-16T21:21:11.534Z,101401.59
2022-12-16T21:24:01.353Z,101378.59
2022-12-16T21:26:51.495Z,101403.25
2022-12-16T21:29:41.698Z,101361.31
2022-12-16T21:32:31.805Z,101393.75
2022-12-16T21:35:22.136Z,101413.25
2022-12-16T21:38:12.357Z,101392.53
2022-12-16T21:41:02.225Z,101421.59
2022-12-16T21:43:52.083Z,101409.03
2022-12-16T21:46:42.274Z,101422.22
2022-12-16T21:49:32.299Z,101415.25
2022-12-16T21:52:22.595Z,101424.69
2022-12-16T21:55:12.395Z,101423.66
2022-12-16T21:58:02.323Z,101424.50
2022-12-16T22:00:56.188Z,101421.81
2022-12-16T22:03:54.244Z,101405.78
2022-12-16T22:09:57.152Z,101421.44
2022-12-16T22:12:47.210Z,101419.47
2022-12-16T22:15:37.138Z,101430.19
2022-12-16T22:18:27.241Z,101439.72
2022-12-16T22:21:21.644Z,101439.72
2022-12-16T22:24:31.697Z,101430.88
2022-12-16T22:27:21.552Z,101439.44
2022-12-16T22:30:11.555Z,101441.81
2022-12-16T22:33:01.359Z,101437.22
2022-12-16T22:35:52.495Z,101444.22
2022-12-16T22:38:42.495Z,101447.63
2022-12-16T22:41:32.725Z,101447.06
2022-12-16T22:44:22.801Z,101425.72
2022-12-16T22:47:12.617Z,101443.22
2022-12-16T22:50:02.380Z,101430.75
2022-12-16T22:52:52.411Z,101463.47
2022-12-16T22:55:43.419Z,101458.97
2022-12-16T22:58:33.519Z,101464.84
2022-12-16T23:01:27.228Z,101456.75
2022-12-16T23:04:17.096Z,101443.78
2022-12-16T23:07:06.908Z,101437.94
2022-12-16T23:09:57.188Z,101438.06
2022-12-16T23:12:47.246Z,101443.44
2022-12-16T23:15:37.437Z,101463.41
2022-12-16T23:18:27.666Z,101461.75
2022-12-16T23:21:17.439Z,101464.47
2022-12-16T23:24:10.594Z,101467.41
2022-12-16T23:27:02.296Z,101465.72
2022-12-16T23:29:52.033Z,101471.97
2022-12-16T23:32:31.396Z,101407.41
2022-12-16T23:32:43.150Z,101481.94
2022-12-16T23:35:33.100Z,101482.25
2022-12-16T23:38:25.191Z,101481.84
2022-12-16T23:41:16.561Z,101488.34
2022-12-16T23:44:06.299Z,101484.47
2022-12-16T23:46:56.048Z,101482.34
2022-12-16T23:49:46.666Z,101476.66
2022-12-16T23:52:36.732Z,101489.91
2022-12-16T23:55:27.276Z,101472.47
2022-12-16T23:58:22.858Z,101488.97
